Main page
METAR-TAF:

METAR-TAF

Airports :

Allama Iqbal International Airport

Lahore, Pakistan

latitude: 31-31N, longitude: 074-24E, elevation: 216 m

Current weather observation

The report was made 36 minutes ago, at 20:25 UTC
Wind 5 kt from the North/Northwest
Temperature 29°C
Humidity 43%
Pressure 1005 hPa
Visibility: 4000 m
haze

METAR: OPLA 202025Z 33005KT 4000 HZ NSC 29/15 Q1005 A29.68

Time: 02:01 (21:01 UTC)

Forecast

The report was made 5 hours and 16 minutes ago, at 15:45 UTC
Forecast valid from 20 at 18 UTC to 21 at 24 UTC
Wind 6 kt from the Northwest
Visibility: 4000 m
haze
Probability 30% :
Temporary
from 21 at 09 UTC to 21 at 13 UTC
Wind 10 kt from the Northwest with gusts up to 25 kt
Visibility: 1500 m
Low drifting dust

TAF: OPLA 201545Z 2018/2124 31006KT 4000 HZ NSC TX41/2110Z TN27/2024Z PROB30 TEMPO 2109/2113 32010G25KT 1500 DRDU NSC

Weather observations and forecasts of more than 4000 airports (METAR and TAF reports).

The available stations are represented by yellow and red dots on the map.

Hover mouse over dot to see the name of the station.

Then click to see weather observations and forecasts.

To change the map : click on the green buttons with a black cross to zoom in, on the green button with a dash to zoom out, or on the green arrows for adjacent maps.


METAR-TAF: